Airfield :
LOGIN :

Register | Disclaimer

   EN    FR    IT 

 










Legend :    VFR   Marginal VFR   IFR   Intensive IFR   Very Intensive IFR
Visi :
Ceiling :
>= 8 km
>= 3000ft
5 to 8 km
1000 to 3000 ft
1500m to 5 km
500 to 1000 ft
800 to 1500m
200 to 500 ft
< 800m
< 200 ft
Symbols :   Thunderstorms  Fog  Heavy snow  Heavy precipitations  Wind > 20 kt
SIGMETs :     Misc.  Thunderstorms  Icing  Turbulence  Mountain Waves  Volcanic Ashes







- Airport Elevation : 1276 ft
- IATA code : STR


EDDS - Stuttgart

CURRENT METAR :
  • 262120Z VRB01KT CAVOK 13/13 Q1022

EXPIRED METARs :
  • 262050Z VRB01KT CAVOK 13/13 Q1022
  • 262020Z 00000KT CAVOK 14/13 Q1022
  • 261950Z VRB02KT CAVOK 14/13 Q1022 NOSIG
  • 261920Z VRB01KT CAVOK 14/13 Q1022 NOSIG
  • 261850Z 18003KT 130V230 9999 FEW040TCU SCT073 BKN090 14/13 Q1022 NOSIG

TAF TAF EDDS
Valid from the 26 at 18:00 until the 27 at 18:00 UTC


261700Z 2618/2718 VRB03KT 9999 FEW025
TEMPO 2702/2709 0400 FG VV001
PROB30
TEMPO 2712/2718 SHRA SCT025CB
No reported NOTAMs for that airfield.



MET'MAP, your aeronautical weather chart ! - Copyright ORBIFLY December 2007 - Disclaimer

ORBIFLY MET'MAP TEAM :

Programming & Development : Alexandra Zaïnal
Concept & Development : Baudouin d'Aumeries
Co-Development & Prog : Marc-Olivier Méhu
Technical & hardware support : Manuel Goepfert

Contact : metmap@orbifly.com




SOURCES & CREDITS :

   NOAA